Time;durP1;ratioP1;P1;durP2;ratioP2;P2;SDS_P1;SDS_P2;PMS_P1;PMS_P2;Temp;Humidity;BMP_temperature;BMP_pressure;BME280_temperature;BME280_humidity;BME280_pressure;Samples;Min_cycle;Max_cycle;Signal;HPM_P1;HPM_P2
2022/10/16 00:01:11;;;;;;;4.80;2.17;;;15.90;99.90;;;;;;5085878;28;20486;-82
2022/10/16 00:03:40;;;;;;;2.45;1.42;;;16.00;99.90;;;;;;5075721;28;20048;-81
2022/10/16 00:06:08;;;;;;;3.75;1.60;;;16.00;99.90;;;;;;5092719;28;20060;-82
2022/10/16 00:08:36;;;;;;;8.93;2.33;;;16.00;99.90;;;;;;5087087;28;20044;-82
2022/10/16 00:11:06;;;;;;;5.25;1.70;;;16.00;99.90;;;;;;5082555;28;20465;-82
2022/10/16 00:13:34;;;;;;;5.55;1.50;;;16.00;99.90;;;;;;5086694;28;20056;-83
2022/10/16 00:16:02;;;;;;;5.38;1.95;;;16.00;99.90;;;;;;5090565;28;20045;-83
2022/10/16 00:18:30;;;;;;;4.10;1.95;;;16.00;99.90;;;;;;5084332;28;20050;-83
2022/10/16 00:21:02;;;;;;;6.55;2.45;;;16.00;99.90;;;;;;5078706;28;20053;-82
2022/10/16 00:23:29;;;;;;;10.15;2.03;;;16.00;99.90;;;;;;5072241;28;20044;-82
2022/10/16 00:25:58;;;;;;;5.22;2.30;;;15.90;99.90;;;;;;5067443;28;20045;-82
2022/10/16 00:28:25;;;;;;;5.45;1.52;;;16.00;99.90;;;;;;5061738;28;20045;-82
2022/10/16 00:30:52;;;;;;;9.00;1.95;;;16.00;99.90;;;;;;5062983;28;20497;-83
2022/10/16 00:33:19;;;;;;;3.45;2.22;;;16.00;99.90;;;;;;5086876;28;20052;-82
2022/10/16 00:35:47;;;;;;;4.40;1.95;;;16.00;99.90;;;;;;5084897;28;20056;-82
2022/10/16 00:38:13;;;;;;;5.57;2.10;;;16.00;99.90;;;;;;5076900;28;20053;-81
2022/10/16 00:40:40;;;;;;;11.18;2.40;;;16.00;99.90;;;;;;5074149;28;20040;-82
2022/10/16 00:43:32;;;;;;;8.15;2.47;;;16.00;99.90;;;;;;5088525;28;20135;-82
2022/10/16 00:46:04;;;;;;;9.80;2.60;;;16.00;99.90;;;;;;5080548;28;20413;-82
2022/10/16 00:48:31;;;;;;;4.28;2.13;;;16.00;99.90;;;;;;5085506;28;20424;-83
2022/10/16 00:50:59;;;;;;;11.93;2.30;;;16.00;99.90;;;;;;5090542;28;20052;-82
2022/10/16 00:53:26;;;;;;;5.13;2.25;;;15.90;99.90;;;;;;5083631;28;20094;-83
2022/10/16 00:55:53;;;;;;;8.68;2.03;;;16.00;99.90;;;;;;5061559;28;20055;-82
2022/10/16 00:58:21;;;;;;;6.40;2.03;;;15.90;99.90;;;;;;5091641;28;20131;-82
2022/10/16 01:00:48;;;;;;;8.48;2.47;;;15.90;99.90;;;;;;5068673;28;20048;-82
2022/10/16 01:03:31;;;;;;;9.52;3.17;;;15.90;99.90;;;;;;5081053;28;20492;-82
2022/10/16 01:06:14;;;;;;;14.25;2.83;;;15.90;99.90;;;;;;5063197;28;20128;-82
2022/10/16 01:08:55;;;;;;;8.93;3.72;;;15.90;99.90;;;;;;5089969;28;20044;-83
2022/10/16 01:11:46;;;;;;;5.85;2.55;;;15.80;99.90;;;;;;5084569;28;20053;-83
2022/10/16 01:14:31;;;;;;;4.13;2.08;;;15.80;99.90;;;;;;5078656;28;20049;-83
2022/10/16 01:17:04;;;;;;;7.65;2.97;;;15.70;99.90;;;;;;5092679;28;20075;-83
2022/10/16 01:19:58;;;;;;;11.15;2.40;;;15.70;99.90;;;;;;5084350;28;20083;-82
2022/10/16 01:22:29;;;;;;;7.30;2.72;;;15.60;99.90;;;;;;5078761;28;20044;-82
2022/10/16 01:25:01;;;;;;;5.47;2.20;;;15.60;99.90;;;;;;5093629;28;20054;-84
2022/10/16 01:27:30;;;;;;;10.02;2.58;;;15.50;99.90;;;;;;5103216;28;20057;-81
2022/10/16 01:30:07;;;;;;;6.45;2.00;;;15.50;99.90;;;;;;5093417;28;20058;-83
2022/10/16 01:32:39;;;;;;;3.65;2.20;;;15.50;99.90;;;;;;5087239;28;20054;-83
2022/10/16 01:35:14;;;;;;;3.17;2.33;;;15.50;99.90;;;;;;5093556;28;20048;-83
2022/10/16 01:37:51;;;;;;;3.67;1.90;;;15.40;99.90;;;;;;5070483;28;20045;-83
2022/10/16 01:40:20;;;;;;;5.43;2.17;;;15.40;99.90;;;;;;5082575;28;20044;-83
2022/10/16 01:42:56;;;;;;;3.70;2.30;;;15.40;99.90;;;;;;5079770;28;20040;-83
2022/10/16 01:45:31;;;;;;;7.13;2.00;;;15.40;99.90;;;;;;5101623;28;20123;-82
2022/10/16 01:48:03;;;;;;;9.45;1.98;;;15.40;99.90;;;;;;5090831;28;20112;-82
2022/10/16 01:50:33;;;;;;;8.20;1.92;;;15.30;99.90;;;;;;5093326;28;20477;-81
2022/10/16 01:53:02;;;;;;;3.10;1.58;;;15.40;99.90;;;;;;5095782;28;20080;-81
2022/10/16 01:55:35;;;;;;;7.00;1.70;;;15.40;99.90;;;;;;5090518;28;20052;-81
2022/10/16 01:58:05;;;;;;;6.68;1.55;;;15.40;99.90;;;;;;5075791;28;20052;-82
2022/10/16 02:00:31;;;;;;;5.15;1.50;;;15.30;99.90;;;;;;5096759;28;20040;-82
2022/10/16 02:03:01;;;;;;;3.58;1.33;;;15.40;99.90;;;;;;5090015;28;20048;-83
2022/10/16 02:05:33;;;;;;;6.00;1.80;;;15.30;99.90;;;;;;5084772;28;20087;-81
2022/10/16 02:08:00;;;;;;;6.30;1.70;;;15.30;99.90;;;;;;5090054;28;20044;-84
2022/10/16 02:10:32;;;;;;;8.25;1.58;;;15.40;99.90;;;;;;5087357;28;20048;-83
2022/10/16 02:13:16;;;;;;;7.13;1.75;;;15.40;99.90;;;;;;5083073;28;20058;-82
2022/10/16 02:15:43;;;;;;;4.75;1.35;;;15.40;99.90;;;;;;5079750;28;20053;-82
2022/10/16 02:18:11;;;;;;;19.58;1.85;;;15.40;99.90;;;;;;5075974;28;20107;-82
2022/10/16 02:20:50;;;;;;;4.40;1.40;;;15.40;99.90;;;;;;5069188;28;20048;-83
2022/10/16 02:23:35;;;;;;;6.33;1.57;;;15.40;99.90;;;;;;5083018;28;20045;-83
2022/10/16 02:26:07;;;;;;;5.20;1.40;;;15.30;99.90;;;;;;5089040;28;20044;-81
2022/10/16 02:28:46;;;;;;;2.35;1.40;;;15.40;99.90;;;;;;5089785;28;20032;-84
2022/10/16 02:31:20;;;;;;;4.90;2.15;;;15.40;99.90;;;;;;5083609;28;20048;-82
2022/10/16 02:33:47;;;;;;;5.53;1.20;;;15.40;99.90;;;;;;5078068;28;20062;-82
2022/10/16 02:36:14;;;;;;;6.53;2.03;;;15.40;99.90;;;;;;5092400;28;20048;-82
2022/10/16 02:38:41;;;;;;;4.68;1.55;;;15.40;99.90;;;;;;5089013;28;20048;-82
2022/10/16 02:41:08;;;;;;;4.13;1.55;;;15.50;99.90;;;;;;5083535;28;20045;-83
2022/10/16 02:43:35;;;;;;;5.07;1.60;;;15.50;99.90;;;;;;5084019;28;20579;-82
2022/10/16 02:46:02;;;;;;;8.68;1.65;;;15.40;99.90;;;;;;5090860;28;20409;-82
2022/10/16 02:48:29;;;;;;;4.90;1.23;;;15.50;99.90;;;;;;5064514;28;20052;-82
2022/10/16 02:50:56;;;;;;;4.53;1.13;;;15.50;99.90;;;;;;5077740;28;20053;-82
2022/10/16 02:53:23;;;;;;;11.20;1.73;;;15.50;99.90;;;;;;5086981;28;20421;-82
2022/10/16 02:55:50;;;;;;;8.68;1.25;;;15.40;99.90;;;;;;5083942;28;20051;-83
2022/10/16 02:58:17;;;;;;;5.78;1.75;;;15.40;99.90;;;;;;5081778;28;20635;-83
2022/10/16 03:00:43;;;;;;;6.28;1.17;;;15.50;99.90;;;;;;5067231;28;20048;-83
2022/10/16 03:03:10;;;;;;;10.15;1.67;;;15.50;99.90;;;;;;5074307;28;20531;-83
2022/10/16 03:05:37;;;;;;;5.93;1.10;;;15.50;99.90;;;;;;5065783;28;20055;-83
2022/10/16 03:08:04;;;;;;;5.20;1.20;;;15.50;99.90;;;;;;5077232;28;20045;-83
2022/10/16 03:10:30;;;;;;;7.75;1.23;;;15.50;99.90;;;;;;5087682;28;20122;-83
2022/10/16 03:12:57;;;;;;;4.47;1.10;;;15.50;99.90;;;;;;5088818;28;20572;-83
2022/10/16 03:15:24;;;;;;;9.60;1.30;;;15.50;99.90;;;;;;5082685;28;20041;-83
2022/10/16 03:17:50;;;;;;;9.73;1.50;;;15.60;99.90;;;;;;5083062;28;20044;-84
2022/10/16 03:20:17;;;;;;;6.28;1.23;;;15.50;99.90;;;;;;5093107;28;20112;-82
2022/10/16 03:22:44;;;;;;;3.72;1.38;;;15.60;99.90;;;;;;5087601;28;20048;-83
2022/10/16 03:25:10;;;;;;;5.53;1.48;;;15.50;99.90;;;;;;5081917;28;20047;-84
2022/10/16 03:27:37;;;;;;;4.32;1.60;;;15.50;99.90;;;;;;5086131;28;20048;-82
2022/10/16 03:30:04;;;;;;;9.10;1.30;;;15.40;99.90;;;;;;5090571;28;20146;-83
2022/10/16 03:32:31;;;;;;;7.82;1.58;;;15.40;99.90;;;;;;5082904;28;20067;-83
2022/10/16 03:34:58;;;;;;;8.02;1.35;;;15.40;99.90;;;;;;5080498;28;20044;-83
2022/10/16 03:37:25;;;;;;;7.18;1.40;;;15.40;99.90;;;;;;5079815;28;20053;-83
2022/10/16 03:39:52;;;;;;;8.48;2.53;;;15.40;99.90;;;;;;5086719;28;20378;-83
2022/10/16 03:42:19;;;;;;;3.33;1.45;;;15.40;99.90;;;;;;5082621;28;20043;-83
2022/10/16 03:44:45;;;;;;;4.97;1.80;;;15.50;99.90;;;;;;5084820;28;20139;-83
2022/10/16 03:47:12;;;;;;;7.15;1.35;;;15.40;99.90;;;;;;5088652;28;20048;-82
2022/10/16 03:49:39;;;;;;;6.28;1.30;;;15.40;99.90;;;;;;5085572;28;20131;-83
2022/10/16 03:52:06;;;;;;;5.38;1.27;;;15.40;99.90;;;;;;5077018;28;20116;-84
2022/10/16 03:54:32;;;;;;;7.18;1.50;;;15.40;99.90;;;;;;5094826;28;20074;-82
2022/10/16 03:56:59;;;;;;;11.75;1.50;;;15.40;99.90;;;;;;5097861;28;20074;-81
2022/10/16 03:59:26;;;;;;;3.72;1.33;;;15.40;99.90;;;;;;5082322;28;20048;-82
2022/10/16 04:01:52;;;;;;;8.05;1.63;;;15.50;99.90;;;;;;5080654;28;20047;-83
2022/10/16 04:04:19;;;;;;;9.77;1.70;;;15.50;99.90;;;;;;5069334;28;20143;-83
2022/10/16 04:06:46;;;;;;;12.27;1.70;;;15.50;99.90;;;;;;5079273;28;20426;-82
2022/10/16 04:09:12;;;;;;;8.05;1.55;;;15.60;99.90;;;;;;5077514;28;20044;-83
2022/10/16 04:11:39;;;;;;;4.13;1.30;;;15.50;99.90;;;;;;5085677;28;20062;-82
2022/10/16 04:14:06;;;;;;;6.20;1.52;;;15.50;99.90;;;;;;5088454;28;20455;-82
2022/10/16 04:16:32;;;;;;;4.55;1.85;;;15.60;99.90;;;;;;5077253;28;20049;-82
2022/10/16 04:18:59;;;;;;;2.28;1.23;;;15.50;99.90;;;;;;5058675;28;20087;-82
2022/10/16 04:21:26;;;;;;;1.55;1.17;;;15.60;99.90;;;;;;5092306;28;20058;-83
2022/10/16 04:23:52;;;;;;;2.72;1.20;;;15.60;99.90;;;;;;5087213;28;20055;-82
2022/10/16 04:26:19;;;;;;;3.65;1.30;;;15.60;99.90;;;;;;5064111;28;20063;-83
2022/10/16 04:28:46;;;;;;;2.72;0.98;;;15.60;99.90;;;;;;5080055;28;20128;-83
2022/10/16 04:31:13;;;;;;;2.75;1.27;;;15.60;99.90;;;;;;5080534;28;20048;-83
2022/10/16 04:33:42;;;;;;;3.85;0.90;;;15.60;99.90;;;;;;5085763;28;20483;-82
2022/10/16 04:36:09;;;;;;;7.95;1.42;;;15.60;99.90;;;;;;5077746;28;20048;-82
2022/10/16 04:38:37;;;;;;;4.40;1.35;;;15.60;99.90;;;;;;5091435;28;20130;-82
2022/10/16 04:41:04;;;;;;;4.53;1.60;;;15.60;99.90;;;;;;5089640;28;20127;-82
2022/10/16 04:43:31;;;;;;;2.25;1.33;;;15.70;99.90;;;;;;5075174;28;20045;-83
2022/10/16 04:45:58;;;;;;;6.10;1.35;;;15.60;99.90;;;;;;5077361;28;20060;-82
2022/10/16 04:48:24;;;;;;;9.05;1.10;;;15.60;99.90;;;;;;5077721;28;20410;-81
2022/10/16 04:50:51;;;;;;;9.65;1.52;;;15.60;99.90;;;;;;5065721;28;20049;-83
2022/10/16 04:53:20;;;;;;;10.80;1.40;;;15.60;99.90;;;;;;5079122;28;20055;-83
2022/10/16 04:55:47;;;;;;;1.55;1.00;;;15.60;99.90;;;;;;5086209;28;20052;-83
2022/10/16 04:58:14;;;;;;;6.90;1.40;;;15.60;99.90;;;;;;5089370;28;20067;-82
2022/10/16 05:00:40;;;;;;;9.75;1.50;;;15.50;99.90;;;;;;5070001;28;20048;-82
2022/10/16 05:03:08;;;;;;;9.57;1.15;;;15.60;99.90;;;;;;5082935;28;20059;-83
2022/10/16 05:05:36;;;;;;;14.70;1.50;;;15.60;99.90;;;;;;5097401;28;20040;-82
2022/10/16 05:08:03;;;;;;;2.78;1.40;;;15.60;99.90;;;;;;5091129;28;20115;-83
2022/10/16 05:10:30;;;;;;;4.35;1.55;;;15.60;99.90;;;;;;5084163;28;20044;-83
2022/10/16 05:12:57;;;;;;;7.70;1.52;;;15.60;99.90;;;;;;5089500;28;20098;-82
2022/10/16 05:15:24;;;;;;;3.72;1.60;;;15.60;99.90;;;;;;5084522;28;20397;-82
2022/10/16 05:17:55;;;;;;;2.47;1.63;;;15.50;99.90;;;;;;5089288;28;20083;-82
2022/10/16 05:20:23;;;;;;;2.70;1.70;;;15.50;99.90;;;;;;5066534;28;20045;-83
2022/10/16 05:22:49;;;;;;;8.55;1.77;;;15.60;99.90;;;;;;5095076;28;20476;-83
2022/10/16 05:25:17;;;;;;;4.13;1.63;;;15.50;99.90;;;;;;5091812;28;20044;-83
2022/10/16 05:27:46;;;;;;;4.45;1.70;;;15.50;99.90;;;;;;5085966;28;20044;-83
2022/10/16 05:30:13;;;;;;;3.80;1.50;;;15.50;99.90;;;;;;5097345;28;20048;-82
2022/10/16 05:32:40;;;;;;;4.50;1.88;;;15.40;99.90;;;;;;5093718;28;20052;-83
2022/10/16 05:35:07;;;;;;;5.03;3.40;;;15.40;99.90;;;;;;5102036;28;20048;-81
2022/10/16 05:37:38;;;;;;;5.15;2.63;;;15.40;99.90;;;;;;5100093;28;20079;-83
2022/10/16 05:40:05;;;;;;;4.72;2.50;;;15.40;99.90;;;;;;5100617;28;20055;-83
2022/10/16 05:42:32;;;;;;;7.53;3.08;;;15.30;99.90;;;;;;5093822;28;20055;-81
2022/10/16 05:44:58;;;;;;;5.70;2.20;;;15.30;99.90;;;;;;5087239;28;20070;-83
2022/10/16 05:47:25;;;;;;;5.80;2.65;;;15.30;99.90;;;;;;5095958;28;20063;-81
2022/10/16 05:49:53;;;;;;;6.45;2.72;;;15.30;99.90;;;;;;5092415;28;20073;-81
2022/10/16 05:52:19;;;;;;;5.97;1.88;;;15.30;99.90;;;;;;5082919;28;20127;-82
2022/10/16 05:54:46;;;;;;;8.85;1.90;;;15.20;99.90;;;;;;5075994;28;20059;-82
2022/10/16 05:57:13;;;;;;;4.93;1.67;;;15.30;99.90;;;;;;5085681;28;20489;-83
2022/10/16 05:59:39;;;;;;;4.53;1.60;;;15.30;99.90;;;;;;5069063;28;20047;-82
2022/10/16 06:02:08;;;;;;;10.10;1.90;;;15.30;99.90;;;;;;5070190;28;20127;-83
2022/10/16 06:04:35;;;;;;;4.85;1.80;;;15.30;99.90;;;;;;5082521;28;20045;-83
2022/10/16 06:07:02;;;;;;;5.65;1.70;;;15.30;99.90;;;;;;5096265;28;20520;-82
2022/10/16 06:09:28;;;;;;;4.57;1.50;;;15.30;99.90;;;;;;5091325;28;20413;-82
2022/10/16 06:11:55;;;;;;;4.63;1.70;;;15.30;99.90;;;;;;5086210;28;20525;-82
2022/10/16 06:14:22;;;;;;;7.43;1.63;;;15.30;99.90;;;;;;5080719;28;20440;-83
2022/10/16 06:16:48;;;;;;;10.30;1.73;;;15.40;99.90;;;;;;5103031;28;20094;-81
2022/10/16 06:19:16;;;;;;;12.40;2.60;;;15.40;99.90;;;;;;5098600;28;20508;-80
2022/10/16 06:21:43;;;;;;;5.97;1.70;;;15.40;99.90;;;;;;5079413;28;20490;-81
2022/10/16 06:24:10;;;;;;;5.40;2.15;;;15.40;99.90;;;;;;5090118;28;20040;-82
2022/10/16 06:26:37;;;;;;;4.13;1.98;;;15.40;99.90;;;;;;5091347;28;20127;-82
2022/10/16 06:29:04;;;;;;;5.65;1.70;;;15.40;99.90;;;;;;5080500;28;20458;-83
2022/10/16 06:31:33;;;;;;;6.32;1.80;;;15.40;99.90;;;;;;5080913;28;20051;-83
2022/10/16 06:34:00;;;;;;;5.53;1.70;;;15.50;99.90;;;;;;5092756;28;20051;-81
2022/10/16 06:36:27;;;;;;;3.22;2.03;;;15.50;99.90;;;;;;5073076;28;20425;-81
2022/10/16 06:38:54;;;;;;;3.10;1.80;;;15.50;99.90;;;;;;5079838;28;20048;-81
2022/10/16 06:41:22;;;;;;;6.05;1.98;;;15.50;99.90;;;;;;5083705;28;20055;-82
2022/10/16 06:43:49;;;;;;;10.02;3.03;;;15.60;99.90;;;;;;5090973;28;20185;-81
2022/10/16 06:46:19;;;;;;;6.25;1.80;;;15.60;99.90;;;;;;5085056;28;20055;-82
2022/10/16 06:48:46;;;;;;;4.95;2.28;;;15.60;99.90;;;;;;5062402;28;20608;-82
2022/10/16 06:51:18;;;;;;;3.42;1.75;;;15.60;99.90;;;;;;5087404;28;20129;-82
2022/10/16 06:53:50;;;;;;;7.95;4.93;;;15.60;99.90;;;;;;5087198;28;20053;-82
2022/10/16 06:56:33;;;;;;;8.63;3.50;;;15.60;99.90;;;;;;5082093;28;20048;-83
2022/10/16 06:59:00;;;;;;;5.75;2.17;;;15.60;99.90;;;;;;5084425;28;20040;-82
2022/10/16 07:01:28;;;;;;;6.32;3.60;;;15.60;99.90;;;;;;5084468;28;20051;-82
2022/10/16 07:03:55;;;;;;;7.90;3.55;;;15.60;99.90;;;;;;5085331;28;20059;-82
2022/10/16 07:06:23;;;;;;;5.45;3.22;;;15.60;99.90;;;;;;5078987;28;20056;-83
2022/10/16 07:08:51;;;;;;;8.15;3.17;;;15.60;99.90;;;;;;5091030;28;20131;-83
2022/10/16 07:11:20;;;;;;;10.70;7.57;;;15.70;99.90;;;;;;5089325;28;20203;-82
2022/10/16 07:13:47;;;;;;;14.43;8.13;;;15.70;99.90;;;;;;5082859;28;20135;-83
2022/10/16 07:16:23;;;;;;;11.93;7.53;;;15.70;99.90;;;;;;5079576;28;20059;-81
2022/10/16 07:18:51;;;;;;;5.03;2.97;;;15.70;99.90;;;;;;5092034;28;20044;-82
2022/10/16 07:21:22;;;;;;;3.92;2.60;;;15.80;99.90;;;;;;5084731;28;20290;-83
2022/10/16 07:23:57;;;;;;;2.70;2.28;;;15.80;99.90;;;;;;5078952;28;20074;-82
2022/10/16 07:26:25;;;;;;;7.68;2.38;;;15.90;99.90;;;;;;5090650;28;20080;-80
2022/10/16 07:28:52;;;;;;;6.45;2.20;;;15.90;99.90;;;;;;5068905;28;20049;-82
2022/10/16 07:31:20;;;;;;;6.75;2.42;;;15.90;99.90;;;;;;5074290;28;20055;-82
2022/10/16 07:33:47;;;;;;;8.68;2.22;;;16.00;99.90;;;;;;5064963;28;20066;-81
2022/10/16 07:36:19;;;;;;;7.25;2.25;;;16.10;99.90;;;;;;5092050;28;20087;-82
2022/10/16 07:38:47;;;;;;;5.53;2.00;;;16.10;99.90;;;;;;5051836;28;20056;-82
2022/10/16 07:41:16;;;;;;;3.55;2.10;;;16.20;99.90;;;;;;5081012;28;20131;-82
2022/10/16 07:43:51;;;;;;;3.22;1.48;;;16.30;99.90;;;;;;5091017;28;20516;-82
2022/10/16 07:46:19;;;;;;;3.00;1.48;;;16.30;99.90;;;;;;5072554;28;20041;-82
2022/10/16 07:48:47;;;;;;;7.82;1.60;;;16.40;99.90;;;;;;5061406;28;20049;-82
2022/10/16 07:51:17;;;;;;;7.57;1.63;;;16.40;99.90;;;;;;5079808;28;20052;-82
2022/10/16 07:53:44;;;;;;;3.57;2.10;;;16.60;99.90;;;;;;5091991;28;20052;-83
2022/10/16 07:56:11;;;;;;;2.97;2.40;;;16.60;99.90;;;;;;5083998;28;20286;-83
2022/10/16 07:58:38;;;;;;;7.65;4.43;;;16.70;99.90;;;;;;5080365;28;20056;-82
2022/10/16 08:01:07;;;;;;;10.20;7.35;;;16.80;99.90;;;;;;5080129;28;20071;-83
2022/10/16 08:03:34;;;;;;;11.70;7.70;;;16.80;99.90;;;;;;5088543;28;20083;-82
2022/10/16 08:06:02;;;;;;;9.93;4.15;;;16.90;99.90;;;;;;5085508;28;20054;-83
2022/10/16 08:08:29;;;;;;;4.63;2.60;;;17.00;99.90;;;;;;5082515;28;20079;-83
2022/10/16 08:10:56;;;;;;;6.43;2.05;;;17.10;99.90;;;;;;5075642;28;20044;-84
2022/10/16 08:13:23;;;;;;;4.88;2.28;;;17.10;99.90;;;;;;5088006;28;20048;-84
2022/10/16 08:15:50;;;;;;;5.38;1.40;;;17.20;99.90;;;;;;5082550;28;20052;-84
2022/10/16 08:18:17;;;;;;;2.90;1.40;;;17.30;99.90;;;;;;5089159;28;20044;-83
2022/10/16 08:20:43;;;;;;;3.65;1.30;;;17.30;99.90;;;;;;5091634;28;20048;-83
2022/10/16 08:23:13;;;;;;;4.10;1.42;;;17.50;99.90;;;;;;5082443;28;20071;-85
2022/10/16 08:25:40;;;;;;;4.85;1.50;;;17.60;99.90;;;;;;5080136;28;20098;-84
2022/10/16 08:28:10;;;;;;;4.80;1.58;;;17.70;99.90;;;;;;5091751;28;20055;-84
2022/10/16 08:30:37;;;;;;;2.80;1.02;;;17.80;99.90;;;;;;5086483;28;20048;-84
2022/10/16 08:33:04;;;;;;;7.22;1.30;;;18.00;99.90;;;;;;5080935;28;20503;-84
2022/10/16 08:35:31;;;;;;;6.68;1.20;;;18.10;99.90;;;;;;5083761;28;20048;-84
2022/10/16 08:37:57;;;;;;;3.25;1.15;;;18.30;99.90;;;;;;5084949;28;20134;-82
2022/10/16 08:40:27;;;;;;;3.85;1.25;;;18.40;99.90;;;;;;5080527;28;20094;-82
2022/10/16 08:43:20;;;;;;;1.92;0.80;;;18.60;99.90;;;;;;5085986;28;20051;-83
2022/10/16 08:46:11;;;;;;;4.32;0.90;;;18.70;99.90;;;;;;5087744;28;20075;-84
2022/10/16 08:48:52;;;;;;;1.85;0.77;;;18.80;99.90;;;;;;5090040;28;20041;-81
2022/10/16 08:51:26;;;;;;;2.72;0.90;;;19.00;99.90;;;;;;5087604;28;20049;-82
2022/10/16 08:54:03;;;;;;;1.00;0.80;;;19.10;99.90;;;;;;5075204;28;20064;-83
2022/10/16 08:56:30;;;;;;;4.47;0.63;;;19.20;99.90;;;;;;5083693;28;20120;-81
2022/10/16 08:58:59;;;;;;;4.93;0.70;;;19.20;99.90;;;;;;5078368;28;20246;-83
2022/10/16 09:01:41;;;;;;;1.85;0.57;;;19.40;99.90;;;;;;5071740;28;20052;-83
2022/10/16 09:04:46;;;;;;;2.10;0.63;;;19.60;99.90;;;;;;5088627;28;20048;-84
2022/10/16 09:07:39;;;;;;;1.08;0.60;;;19.70;99.90;;;;;;5081443;28;20311;-83
2022/10/16 09:10:11;;;;;;;4.63;0.77;;;19.90;99.90;;;;;;5070948;28;20040;-83
2022/10/16 09:12:58;;;;;;;7.70;0.90;;;19.90;99.90;;;;;;5080844;28;20060;-81
2022/10/16 09:15:47;;;;;;;8.82;1.17;;;20.00;99.90;;;;;;5098400;22;20056;-86
2022/10/16 09:18:17;;;;;;;6.13;1.17;;;20.10;99.90;;;;;;5069709;28;20079;-86
2022/10/16 09:20:59;;;;;;;7.63;1.10;;;20.30;99.90;;;;;;5067108;28;20045;-85
2022/10/16 09:23:30;;;;;;;4.97;1.13;;;20.20;99.90;;;;;;5055220;28;20080;-85
2022/10/16 09:26:00;;;;;;;2.30;0.80;;;20.20;99.90;;;;;;5072022;28;20049;-86
2022/10/16 09:28:29;;;;;;;3.47;0.80;;;20.30;99.90;;;;;;5052574;28;20080;-85
2022/10/16 09:30:59;;;;;;;0.95;0.77;;;20.30;99.90;;;;;;5051748;28;20054;-84
2022/10/16 09:33:33;;;;;;;5.38;0.95;;;20.30;99.90;;;;;;5050467;28;20482;-84
2022/10/16 09:36:03;;;;;;;1.58;0.90;;;20.40;99.90;;;;;;5055801;28;20056;-84
2022/10/16 09:38:32;;;;;;;4.97;0.73;;;20.20;99.90;;;;;;5065181;28;20494;-85
2022/10/16 09:41:22;;;;;;;3.13;0.95;;;20.20;99.90;;;;;;5079339;28;20067;-85
2022/10/16 09:43:56;;;;;;;2.78;1.27;;;20.20;99.90;;;;;;5070954;28;20044;-85
2022/10/16 09:46:30;;;;;;;4.25;1.23;;;20.20;99.90;;;;;;5065265;28;20429;-86
2022/10/16 09:49:05;;;;;;;4.50;1.17;;;20.20;99.90;;;;;;5071844;28;20044;-86
2022/10/16 09:51:37;;;;;;;2.10;1.00;;;20.20;99.90;;;;;;5051204;28;20044;-86
2022/10/16 09:54:09;;;;;;;2.50;0.90;;;20.20;99.90;;;;;;5054194;28;20057;-84
2022/10/16 09:56:51;;;;;;;3.05;1.20;;;20.20;99.90;;;;;;5048122;28;20052;-86
2022/10/16 09:59:30;;;;;;;3.97;1.20;;;20.20;99.90;;;;;;5068126;28;20128;-86
2022/10/16 10:02:03;;;;;;;4.10;1.10;;;20.20;99.90;;;;;;5069088;28;20551;-86
2022/10/16 10:04:57;;;;;;;3.58;0.88;;;20.20;99.90;;;;;;5041891;28;20099;-86
2022/10/16 10:07:33;;;;;;;4.25;0.98;;;20.20;99.90;;;;;;5067439;28;20120;-85
2022/10/16 10:10:06;;;;;;;1.42;0.93;;;20.30;99.90;;;;;;5052353;28;20040;-85
2022/10/16 10:12:36;;;;;;;3.10;0.73;;;20.30;99.90;;;;;;5056402;28;20053;-85
2022/10/16 10:15:21;;;;;;;5.15;0.80;;;20.30;99.90;;;;;;5068757;28;20472;-86
2022/10/16 10:17:52;;;;;;;5.30;0.90;;;20.40;99.90;;;;;;5069257;28;20052;-86
2022/10/16 10:20:31;;;;;;;3.83;0.70;;;20.50;99.90;;;;;;5051290;28;20698;-86
2022/10/16 10:22:58;;;;;;;7.25;1.13;;;20.50;99.90;;;;;;5069268;28;20056;-85
2022/10/16 10:25:43;;;;;;;10.32;1.35;;;20.60;99.90;;;;;;5070990;28;20047;-85
2022/10/16 10:28:35;;;;;;;3.17;0.82;;;20.70;99.90;;;;;;5051684;28;20451;-85
2022/10/16 10:31:34;;;;;;;;;;;20.80;99.90;;;;;;5070752;28;20040;-86
2022/10/16 10:34:32;;;;;;;7.25;0.85;;;20.80;99.90;;;;;;5036016;28;19924;-86
2022/10/16 10:37:35;;;;;;;4.68;1.50;;;20.90;99.90;;;;;;5055344;28;20134;-86
2022/10/16 10:40:24;;;;;;;8.07;1.50;;;20.90;99.90;;;;;;5045555;28;20059;-86
2022/10/16 10:43:36;;;;;;;6.28;1.10;;;20.90;99.90;;;;;;5052933;28;20060;-86
2022/10/16 10:46:16;;;;;;;2.22;0.85;;;21.00;99.90;;;;;;5051508;28;20048;-86
2022/10/16 10:49:01;;;;;;;3.75;1.05;;;21.00;99.90;;;;;;5068183;28;20049;-85
2022/10/16 10:51:57;;;;;;;5.38;1.00;;;21.00;99.90;;;;;;5049026;28;20048;-86
2022/10/16 10:54:45;;;;;;;2.78;1.00;;;21.00;99.90;;;;;;5055673;28;20056;-86
2022/10/16 10:57:49;;;;;;;1.92;1.13;;;21.10;99.90;;;;;;5069233;28;20091;-85
2022/10/16 11:00:42;;;;;;;4.22;1.05;;;21.20;99.90;;;;;;5063329;28;20064;-85
2022/10/16 11:03:38;;;;;;;3.10;1.05;;;21.30;99.90;;;;;;5069989;28;20051;-85
2022/10/16 11:06:26;;;;;;;3.40;0.80;;;21.30;99.90;;;;;;5069278;28;20052;-87
2022/10/16 11:09:18;;;;;;;2.15;0.98;;;21.30;99.90;;;;;;5068266;28;20037;-86
2022/10/16 11:11:57;;;;;;;4.53;0.80;;;21.30;99.90;;;;;;5052646;28;20046;-86
2022/10/16 11:14:34;;;;;;;2.00;0.90;;;21.30;99.90;;;;;;5070994;28;21674;-87
2022/10/16 11:17:31;;;;;;;1.00;0.85;;;21.30;99.90;;;;;;5064773;28;20541;-87
2022/10/16 11:20:22;;;;;;;2.80;0.73;;;21.40;99.90;;;;;;5048167;28;20851;-87
2022/10/16 11:23:21;;;;;;;3.72;1.08;;;21.40;99.90;;;;;;5069121;28;20048;-85
2022/10/16 11:25:48;;;;;;;2.25;1.20;;;21.50;99.90;;;;;;5073056;28;20048;-86
2022/10/16 11:28:27;;;;;;;3.92;1.00;;;21.40;99.90;;;;;;5072620;28;20044;-84
2022/10/16 11:31:16;;;;;;;1.15;1.02;;;21.50;99.90;;;;;;5056560;28;20102;-85
2022/10/16 11:33:49;;;;;;;2.30;1.15;;;21.50;99.90;;;;;;5056346;28;20502;-87
2022/10/16 11:36:36;;;;;;;2.67;0.80;;;21.50;99.90;;;;;;5072935;28;20049;-86
2022/10/16 11:39:09;;;;;;;2.30;1.30;;;21.50;99.90;;;;;;5060946;28;20071;-86
2022/10/16 11:41:45;;;;;;;2.83;0.65;;;21.50;99.90;;;;;;5050548;28;20413;-86
2022/10/16 11:44:48;;;;;;;2.67;1.00;;;21.40;99.90;;;;;;5052666;28;20044;-84
2022/10/16 11:47:48;;;;;;;5.95;0.80;;;21.50;99.90;;;;;;5039401;28;20049;-86
2022/10/16 11:50:48;;;;;;;1.92;0.80;;;21.40;99.90;;;;;;5045155;28;20106;-85
2022/10/16 11:53:48;;;;;;;1.35;1.00;;;21.30;99.90;;;;;;5066463;28;20054;-85
2022/10/16 11:56:18;;;;;;;2.88;0.82;;;21.30;99.90;;;;;;5054880;28;20129;-85
2022/10/16 11:59:17;;;;;;;6.10;0.90;;;21.40;99.90;;;;;;5069530;28;20048;-85
2022/10/16 12:02:09;;;;;;;2.30;0.90;;;21.30;99.90;;;;;;5035064;28;20510;-86
2022/10/16 12:04:58;;;;;;;0.80;0.68;;;21.30;99.90;;;;;;5045608;28;20498;-84
2022/10/16 12:07:34;;;;;;;5.38;0.93;;;21.30;99.90;;;;;;5040961;28;20055;-84
2022/10/16 12:10:24;;;;;;;5.05;0.98;;;21.40;99.90;;;;;;5070772;28;20052;-85
2022/10/16 12:12:53;;;;;;;7.38;1.20;;;21.50;99.90;;;;;;5065921;28;20051;-86
2022/10/16 12:15:28;;;;;;;3.08;1.08;;;21.50;99.90;;;;;;5055136;28;20079;-85
2022/10/16 12:18:25;;;;;;;7.53;0.90;;;21.60;99.90;;;;;;5070804;28;20041;-85
2022/10/16 12:20:58;;;;;;;2.97;1.00;;;21.80;99.90;;;;;;5053959;28;20128;-85
2022/10/16 12:23:26;;;;;;;2.22;0.98;;;21.80;99.90;;;;;;5071389;28;20071;-86
2022/10/16 12:26:02;;;;;;;4.35;1.10;;;21.90;99.90;;;;;;5073541;28;20395;-85
2022/10/16 12:28:34;;;;;;;5.30;1.30;;;21.90;99.90;;;;;;5054173;28;20052;-86
2022/10/16 12:31:05;;;;;;;4.25;2.60;;;22.00;99.90;;;;;;5074770;28;20044;-85
2022/10/16 12:33:40;;;;;;;0.82;0.77;;;22.10;99.90;;;;;;5073573;28;20494;-86
2022/10/16 12:36:26;;;;;;;4.38;1.10;;;22.10;99.90;;;;;;5073710;28;20049;-86
2022/10/16 12:38:54;;;;;;;18.70;1.40;;;22.10;99.90;;;;;;5072463;28;20049;-86
2022/10/16 12:41:39;;;;;;;3.28;0.90;;;22.10;99.90;;;;;;5073377;28;20056;-86
2022/10/16 12:44:26;;;;;;;3.40;0.90;;;22.10;99.90;;;;;;5068518;28;20054;-86
2022/10/16 12:46:53;;;;;;;3.75;1.10;;;22.00;99.90;;;;;;5065167;28;20040;-85
2022/10/16 12:49:36;;;;;;;1.73;1.00;;;22.00;99.90;;;;;;5071846;28;20047;-86
2022/10/16 12:52:05;;;;;;;4.75;1.10;;;22.00;99.90;;;;;;5052243;28;20043;-86
2022/10/16 12:54:37;;;;;;;4.15;0.98;;;22.00;99.90;;;;;;5055189;28;20421;-85
2022/10/16 12:57:14;;;;;;;7.35;1.10;;;21.90;99.90;;;;;;5071539;28;20056;-85
2022/10/16 13:00:13;;;;;;;1.38;0.70;;;21.90;99.90;;;;;;5067071;28;20053;-85
2022/10/16 13:02:58;;;;;;;3.90;0.95;;;21.80;99.90;;;;;;5036856;28;20052;-84
2022/10/16 13:06:03;;;;;;;10.50;1.92;;;21.80;99.90;;;;;;5070233;28;20151;-85
2022/10/16 13:08:48;;;;;;;7.50;1.17;;;21.80;99.90;;;;;;4949909;29;20052;-85
2022/10/16 13:11:28;;;;;;;3.25;1.13;;;21.90;99.90;;;;;;5059709;28;20055;-85
2022/10/16 13:14:28;;;;;;;3.30;0.85;;;22.00;99.90;;;;;;5046356;28;20045;-86
2022/10/16 13:17:19;;;;;;;5.40;1.33;;;21.90;99.90;;;;;;5048736;28;20049;-85